createdAt,value
2023-02-19T00:00:45.383Z,99.90
2023-02-19T00:03:53.040Z,99.90
2023-02-19T00:06:36.443Z,99.90
2023-02-19T00:09:20.288Z,99.90
2023-02-19T00:12:02.907Z,99.90
2023-02-19T00:14:45.134Z,99.90
2023-02-19T00:17:27.582Z,99.90
2023-02-19T00:20:10.138Z,99.90
2023-02-19T00:22:52.910Z,99.90
2023-02-19T00:25:37.986Z,99.90
2023-02-19T00:28:21.440Z,99.90
2023-02-19T00:31:15.238Z,99.90
2023-02-19T00:34:00.447Z,99.90
2023-02-19T00:36:43.939Z,99.90
2023-02-19T00:39:26.585Z,99.90
2023-02-19T00:42:09.073Z,99.90
2023-02-19T00:44:51.497Z,99.90
2023-02-19T00:47:35.686Z,99.90
2023-02-19T00:50:18.187Z,99.90
2023-02-19T00:53:00.512Z,99.90
2023-02-19T00:55:43.645Z,99.90
2023-02-19T00:58:26.061Z,99.90
2023-02-19T01:01:09.843Z,99.90
2023-02-19T01:03:52.479Z,99.90
2023-02-19T01:06:39.211Z,99.90
2023-02-19T01:09:21.546Z,99.90
2023-02-19T01:12:07.402Z,99.90
2023-02-19T01:14:55.241Z,99.90
2023-02-19T01:17:38.173Z,99.90
2023-02-19T01:20:20.386Z,99.90
2023-02-19T01:23:02.903Z,99.90
2023-02-19T01:25:45.092Z,99.90
2023-02-19T01:28:27.657Z,99.90
2023-02-19T01:31:14.480Z,99.90
2023-02-19T01:34:02.108Z,99.90
2023-02-19T01:36:44.428Z,99.90
2023-02-19T01:39:26.896Z,99.90
2023-02-19T01:42:17.046Z,99.90
2023-02-19T01:45:21.645Z,99.90
2023-02-19T01:48:12.322Z,99.90
2023-02-19T01:51:00.960Z,99.90
2023-02-19T01:53:47.821Z,99.90
2023-02-19T01:56:33.469Z,99.90
2023-02-19T01:59:18.275Z,99.90
2023-02-19T02:02:01.493Z,99.90
2023-02-19T02:04:47.031Z,99.90
2023-02-19T02:07:49.506Z,99.90
2023-02-19T02:10:32.489Z,99.90
2023-02-19T02:13:15.020Z,99.90
2023-02-19T02:16:30.115Z,99.90
2023-02-19T02:19:44.861Z,99.90
2023-02-19T02:22:29.471Z,99.90
2023-02-19T02:25:47.085Z,99.90
2023-02-19T02:28:42.148Z,99.90
2023-02-19T02:31:56.883Z,99.90
2023-02-19T02:34:49.061Z,99.90
2023-02-19T02:37:35.647Z,99.90
2023-02-19T02:40:19.162Z,99.90
2023-02-19T02:43:02.204Z,99.90
2023-02-19T02:45:45.493Z,99.90
2023-02-19T02:48:49.508Z,99.90
2023-02-19T02:51:39.036Z,99.90
2023-02-19T02:54:52.142Z,99.90
2023-02-19T02:57:37.032Z,99.90
2023-02-19T03:00:19.927Z,99.90
2023-02-19T03:03:02.516Z,99.90
2023-02-19T03:05:51.800Z,99.90
2023-02-19T03:08:39.990Z,99.90
2023-02-19T03:11:58.657Z,99.90
2023-02-19T03:15:09.422Z,99.90
2023-02-19T03:18:19.750Z,99.90
2023-02-19T03:21:04.194Z,99.90
2023-02-19T03:24:06.983Z,99.90
2023-02-19T03:26:54.029Z,99.90
2023-02-19T03:29:39.956Z,99.90
2023-02-19T03:32:55.421Z,99.90
2023-02-19T03:35:46.775Z,99.90
2023-02-19T03:38:38.854Z,99.90
2023-02-19T03:41:36.414Z,99.90
2023-02-19T03:44:41.151Z,99.90
2023-02-19T03:47:27.307Z,99.90
2023-02-19T03:50:12.410Z,99.90
2023-02-19T03:53:08.539Z,99.90
2023-02-19T03:56:16.367Z,99.90
2023-02-19T03:59:08.902Z,99.90
2023-02-19T04:02:01.104Z,99.90
2023-02-19T04:04:53.234Z,99.90
2023-02-19T04:07:41.049Z,99.90
2023-02-19T04:10:25.793Z,99.90
2023-02-19T04:13:20.755Z,99.90
2023-02-19T04:16:08.858Z,99.90
2023-02-19T04:18:57.178Z,99.90
2023-02-19T04:21:41.504Z,99.90
2023-02-19T04:24:31.256Z,99.90
2023-02-19T04:27:13.897Z,99.90
2023-02-19T04:29:56.177Z,99.90
2023-02-19T04:32:38.619Z,99.90
2023-02-19T04:35:20.815Z,99.90
2023-02-19T04:38:04.061Z,99.90
2023-02-19T04:40:47.191Z,99.90
2023-02-19T04:43:29.676Z,99.90
2023-02-19T04:46:11.910Z,99.90
2023-02-19T04:48:56.604Z,99.90
2023-02-19T04:51:39.292Z,99.90
2023-02-19T04:54:21.723Z,99.90
2023-02-19T04:57:03.933Z,99.90
2023-02-19T04:59:47.089Z,99.90
2023-02-19T05:02:29.212Z,99.90
2023-02-19T05:05:11.761Z,99.90
2023-02-19T05:07:54.328Z,99.90
2023-02-19T05:10:36.794Z,99.90
2023-02-19T05:13:19.834Z,99.90
2023-02-19T05:16:07.431Z,99.90
2023-02-19T05:18:49.736Z,99.90
2023-02-19T05:21:32.136Z,99.90
2023-02-19T05:24:14.332Z,99.90
2023-02-19T05:26:56.772Z,99.90
2023-02-19T05:29:38.978Z,99.90
2023-02-19T05:32:21.393Z,99.90
2023-02-19T05:35:04.078Z,99.90
2023-02-19T05:37:46.507Z,99.90
2023-02-19T05:40:28.877Z,99.90
2023-02-19T05:43:12.309Z,99.90
2023-02-19T05:45:58.698Z,99.90
2023-02-19T05:48:41.566Z,99.90
2023-02-19T05:51:26.083Z,99.90
2023-02-19T05:54:08.734Z,99.90
2023-02-19T05:56:51.282Z,99.90
2023-02-19T05:59:34.028Z,99.90
2023-02-19T06:02:19.316Z,99.90
2023-02-19T06:05:02.048Z,99.90
2023-02-19T06:07:45.112Z,99.90
2023-02-19T06:10:28.422Z,99.90
2023-02-19T06:13:11.141Z,99.90
2023-02-19T06:15:53.889Z,99.90
2023-02-19T06:18:40.672Z,99.90
2023-02-19T06:21:23.375Z,99.90
2023-02-19T06:24:10.093Z,99.90
2023-02-19T06:26:52.699Z,99.90
2023-02-19T06:29:38.272Z,99.90
2023-02-19T06:32:20.993Z,99.90
2023-02-19T06:35:04.105Z,99.90
2023-02-19T06:37:50.644Z,99.90
2023-02-19T06:40:33.011Z,99.90
2023-02-19T06:43:15.777Z,99.90
2023-02-19T06:45:59.943Z,99.90
2023-02-19T06:48:44.637Z,99.90
2023-02-19T06:51:27.321Z,99.90
2023-02-19T06:54:10.015Z,99.90
2023-02-19T06:56:52.847Z,99.90
2023-02-19T06:59:35.381Z,99.90
2023-02-19T07:02:17.782Z,99.90
2023-02-19T07:05:00.351Z,99.90
2023-02-19T07:07:45.319Z,99.90
2023-02-19T07:10:27.965Z,99.90
2023-02-19T07:13:10.302Z,99.90
2023-02-19T07:15:58.391Z,99.90
2023-02-19T07:18:41.217Z,99.90
2023-02-19T07:21:24.205Z,99.90
2023-02-19T07:24:06.780Z,99.90
2023-02-19T07:26:49.545Z,99.90
2023-02-19T07:29:31.832Z,99.90
2023-02-19T07:32:14.469Z,99.90
2023-02-19T07:34:56.841Z,99.90
2023-02-19T07:37:41.294Z,99.90
2023-02-19T07:40:23.669Z,99.90
2023-02-19T07:43:06.289Z,99.90
2023-02-19T07:45:48.802Z,99.90
2023-02-19T07:48:31.864Z,99.90
2023-02-19T07:51:19.553Z,99.90
2023-02-19T07:54:02.249Z,99.90
2023-02-19T07:56:44.649Z,99.90
2023-02-19T07:59:27.263Z,99.90
2023-02-19T08:02:36.439Z,99.90
2023-02-19T08:05:19.388Z,99.90
2023-02-19T08:08:01.962Z,99.90
2023-02-19T08:11:03.446Z,99.90
2023-02-19T08:13:49.320Z,99.90
2023-02-19T08:16:42.685Z,99.90
2023-02-19T08:19:26.024Z,99.90
2023-02-19T08:22:08.913Z,99.90
2023-02-19T08:24:51.345Z,99.90
2023-02-19T08:27:34.275Z,99.90
2023-02-19T08:30:16.757Z,99.90
2023-02-19T08:33:02.270Z,99.90
2023-02-19T08:35:45.212Z,99.90
2023-02-19T08:38:27.927Z,99.90
2023-02-19T08:41:12.828Z,99.90
2023-02-19T08:43:55.561Z,99.90
2023-02-19T08:46:38.189Z,99.90
2023-02-19T08:49:20.805Z,99.90
2023-02-19T08:52:03.097Z,99.90
2023-02-19T08:54:45.730Z,99.90
2023-02-19T08:57:29.363Z,95.60
2023-02-19T09:00:13.415Z,99.90
2023-02-19T09:02:58.310Z,75.10
2023-02-19T09:05:41.520Z,59.30
2023-02-19T09:08:23.848Z,17.00
2023-02-19T09:11:07.497Z,1.30
2023-02-19T09:13:49.905Z,1.00
2023-02-19T09:16:32.801Z,60.80
2023-02-19T09:19:15.469Z,1.00
2023-02-19T09:21:58.739Z,1.00
2023-02-19T09:24:41.269Z,1.00
2023-02-19T09:27:23.844Z,1.00
2023-02-19T09:30:07.250Z,1.00
2023-02-19T09:32:50.043Z,99.90
2023-02-19T09:35:32.622Z,99.90
2023-02-19T09:38:15.468Z,99.90
2023-02-19T09:40:59.376Z,99.90
2023-02-19T09:43:43.113Z,99.90
2023-02-19T09:46:38.793Z,20.10
2023-02-19T09:49:40.414Z,29.00
2023-02-19T09:52:43.757Z,28.30
2023-02-19T09:55:39.135Z,23.40
2023-02-19T09:58:31.024Z,22.60
2023-02-19T10:01:14.781Z,20.10
2023-02-19T10:03:57.955Z,25.80
2023-02-19T10:06:40.482Z,23.40
2023-02-19T10:09:27.029Z,23.90
2023-02-19T10:12:18.820Z,28.40
2023-02-19T10:15:30.480Z,24.10
2023-02-19T10:18:15.815Z,23.50
2023-02-19T10:20:58.956Z,24.00
2023-02-19T10:23:42.841Z,23.40
2023-02-19T10:26:25.494Z,22.90
2023-02-19T10:29:10.474Z,18.30
2023-02-19T10:32:24.105Z,24.30
2023-02-19T10:35:16.638Z,24.30
2023-02-19T10:37:59.180Z,24.30
2023-02-19T10:40:46.012Z,27.00
2023-02-19T10:43:34.109Z,23.40
2023-02-19T10:46:29.262Z,20.30
2023-02-19T10:49:30.696Z,26.40
2023-02-19T10:52:24.514Z,21.50
2023-02-19T10:55:27.042Z,25.30
2023-02-19T10:58:25.185Z,26.10
2023-02-19T11:01:27.359Z,21.80
2023-02-19T11:04:18.510Z,24.00
2023-02-19T11:07:30.926Z,26.30
2023-02-19T11:10:26.245Z,26.30
2023-02-19T11:13:18.725Z,28.30
2023-02-19T11:16:01.506Z,24.10
2023-02-19T11:18:45.313Z,21.90
2023-02-19T11:21:34.893Z,21.80
2023-02-19T11:24:35.452Z,27.10
2023-02-19T11:27:21.899Z,20.80
2023-02-19T11:30:36.386Z,25.70
2023-02-19T11:33:25.379Z,24.90
2023-02-19T11:36:27.222Z,24.90
2023-02-19T11:39:17.214Z,25.30
2023-02-19T11:42:29.497Z,24.50
2023-02-19T11:45:25.298Z,25.80
2023-02-19T11:48:32.171Z,30.20
2023-02-19T11:51:44.173Z,26.60
2023-02-19T11:55:03.296Z,24.30
2023-02-19T11:57:47.955Z,24.30
2023-02-19T12:00:31.449Z,23.50
2023-02-19T12:03:20.200Z,27.20
2023-02-19T12:06:27.229Z,24.80
2023-02-19T12:09:33.619Z,24.50
2023-02-19T12:12:18.816Z,18.80
2023-02-19T12:15:10.380Z,24.30
2023-02-19T12:18:17.464Z,23.70
2023-02-19T12:21:27.926Z,25.30
2023-02-19T12:24:27.015Z,23.00
2023-02-19T12:27:27.504Z,26.80
2023-02-19T12:30:17.258Z,25.40
2023-02-19T12:33:11.843Z,25.30
2023-02-19T12:36:28.640Z,23.20
2023-02-19T12:39:13.995Z,25.40
2023-02-19T12:42:10.274Z,25.90
2023-02-19T12:45:00.398Z,21.80
2023-02-19T12:47:47.390Z,17.40
2023-02-19T12:50:31.972Z,25.90
2023-02-19T12:53:32.753Z,27.30
2023-02-19T12:56:25.154Z,25.50
2023-02-19T12:59:14.474Z,27.10
2023-02-19T13:02:15.013Z,25.80
2023-02-19T13:05:20.298Z,28.10
2023-02-19T13:08:19.568Z,29.00
2023-02-19T13:11:18.095Z,25.70
2023-02-19T13:14:08.843Z,25.60
2023-02-19T13:16:56.103Z,22.80
2023-02-19T13:19:39.113Z,23.50
2023-02-19T13:23:01.082Z,20.40
2023-02-19T13:25:53.848Z,15.50
2023-02-19T13:29:01.199Z,15.10
2023-02-19T13:32:21.147Z,16.70
2023-02-19T13:35:15.613Z,16.70
2023-02-19T13:38:02.272Z,19.80
2023-02-19T13:40:53.995Z,23.50
2023-02-19T13:43:39.149Z,16.70
2023-02-19T13:46:21.891Z,22.50
2023-02-19T13:49:22.973Z,21.30
2023-02-19T13:52:55.217Z,20.70
2023-02-19T13:55:46.164Z,18.30
2023-02-19T13:58:34.523Z,23.20
2023-02-19T14:01:18.574Z,21.90
2023-02-19T14:04:21.453Z,24.50
2023-02-19T14:07:04.267Z,23.50
2023-02-19T14:09:47.486Z,22.40
2023-02-19T14:12:36.194Z,22.60
2023-02-19T14:15:37.003Z,20.70
2023-02-19T14:18:45.600Z,23.10
2023-02-19T14:21:39.057Z,19.70
2023-02-19T14:24:23.540Z,16.10
2023-02-19T14:27:05.982Z,18.80
2023-02-19T14:29:49.384Z,16.40
2023-02-19T14:32:31.761Z,18.60
2023-02-19T14:35:35.516Z,11.70
2023-02-19T14:38:28.848Z,16.20
2023-02-19T14:41:14.507Z,16.50
2023-02-19T14:44:00.658Z,15.30
2023-02-19T14:46:50.064Z,16.60
2023-02-19T14:49:42.778Z,18.20
2023-02-19T14:52:49.865Z,17.60
2023-02-19T14:55:38.593Z,17.60
2023-02-19T14:58:31.103Z,16.30
2023-02-19T15:01:28.551Z,17.00
2023-02-19T15:04:23.887Z,15.20
2023-02-19T15:07:15.589Z,16.50
2023-02-19T15:10:04.911Z,16.60
2023-02-19T15:13:00.207Z,14.80
2023-02-19T15:15:45.714Z,21.90
2023-02-19T15:18:29.978Z,12.60
2023-02-19T15:21:25.632Z,12.80
2023-02-19T15:24:08.453Z,22.20
2023-02-19T15:26:54.265Z,11.90
2023-02-19T15:29:46.076Z,17.80
2023-02-19T15:32:28.936Z,19.40
2023-02-19T15:35:20.206Z,12.30
2023-02-19T15:38:02.980Z,18.80
2023-02-19T15:40:46.776Z,9.60
2023-02-19T15:43:32.931Z,13.30
2023-02-19T15:46:21.010Z,12.00
2023-02-19T15:49:38.885Z,15.30
2023-02-19T15:52:32.707Z,12.90
2023-02-19T15:55:36.176Z,11.50
2023-02-19T15:58:40.595Z,11.40
2023-02-19T16:01:27.162Z,12.70
2023-02-19T16:04:19.320Z,19.70
2023-02-19T16:07:03.822Z,22.00
2023-02-19T16:09:46.822Z,21.10
2023-02-19T16:12:30.351Z,22.10
2023-02-19T16:15:14.507Z,21.00
2023-02-19T16:17:58.090Z,14.30
2023-02-19T16:20:40.479Z,14.20
2023-02-19T16:23:25.327Z,29.60
2023-02-19T16:26:07.842Z,21.20
2023-02-19T16:28:55.497Z,26.70
2023-02-19T16:31:38.490Z,27.40
2023-02-19T16:34:42.266Z,28.70
2023-02-19T16:37:41.209Z,28.90
2023-02-19T16:40:23.819Z,27.20
2023-02-19T16:43:24.582Z,26.00
2023-02-19T16:46:10.769Z,29.10
2023-02-19T16:48:56.212Z,25.20
2023-02-19T16:51:38.811Z,26.30
2023-02-19T16:54:21.171Z,27.00
2023-02-19T16:57:03.748Z,25.00
2023-02-19T16:59:46.616Z,23.90
2023-02-19T17:02:29.879Z,24.40
2023-02-19T17:05:13.975Z,25.70
2023-02-19T17:07:56.664Z,27.20
2023-02-19T17:10:39.046Z,22.00
2023-02-19T17:13:25.708Z,22.50
2023-02-19T17:16:11.097Z,26.40
2023-02-19T17:18:54.781Z,27.80
2023-02-19T17:21:39.039Z,28.30
2023-02-19T17:24:21.692Z,24.00
2023-02-19T17:27:04.202Z,22.30
2023-02-19T17:29:46.767Z,23.60
2023-02-19T17:32:29.147Z,24.30
2023-02-19T17:35:11.829Z,21.90
2023-02-19T17:37:54.370Z,22.30
2023-02-19T17:40:38.314Z,22.70
2023-02-19T17:43:20.692Z,26.60
2023-02-19T17:46:04.114Z,29.10
2023-02-19T17:48:46.584Z,32.40
2023-02-19T17:51:29.644Z,29.90
2023-02-19T17:54:12.496Z,29.60
2023-02-19T17:56:55.178Z,27.00
2023-02-19T17:59:40.288Z,25.40
2023-02-19T18:02:22.916Z,32.80
2023-02-19T18:05:06.123Z,28.40
2023-02-19T18:07:49.246Z,20.20
2023-02-19T18:10:32.107Z,16.00
2023-02-19T18:13:14.907Z,15.00
2023-02-19T18:15:57.959Z,1.00
2023-02-19T18:18:41.168Z,1.00
2023-02-19T18:21:24.424Z,1.00
2023-02-19T18:24:07.324Z,1.00
2023-02-19T18:26:49.769Z,1.00
2023-02-19T18:29:35.038Z,1.00
2023-02-19T18:32:18.767Z,1.00
2023-02-19T18:35:02.230Z,1.00
2023-02-19T18:37:45.148Z,1.00
2023-02-19T18:40:28.560Z,1.00
2023-02-19T18:43:10.994Z,1.00
2023-02-19T18:45:53.864Z,1.00
2023-02-19T18:48:37.271Z,1.00
2023-02-19T18:51:23.767Z,1.00
2023-02-19T18:54:08.244Z,1.00
2023-02-19T18:56:51.971Z,1.00
2023-02-19T18:59:36.118Z,1.00
2023-02-19T19:02:21.103Z,1.00
2023-02-19T19:05:05.106Z,1.00
2023-02-19T19:07:50.604Z,1.00
2023-02-19T19:10:35.227Z,1.00
2023-02-19T19:13:21.446Z,1.00
2023-02-19T19:16:05.384Z,1.00
2023-02-19T19:18:49.112Z,1.00
2023-02-19T19:21:31.898Z,1.00
2023-02-19T19:24:15.515Z,1.00
2023-02-19T19:26:57.989Z,1.00
2023-02-19T19:29:40.800Z,1.00
2023-02-19T19:32:23.516Z,1.00
2023-02-19T19:35:06.271Z,1.00
2023-02-19T19:37:49.661Z,1.00
2023-02-19T19:40:32.385Z,1.00
2023-02-19T19:43:15.373Z,1.00
2023-02-19T19:45:59.619Z,1.00
2023-02-19T19:48:42.712Z,1.00
2023-02-19T19:51:34.533Z,1.00
2023-02-19T19:54:16.965Z,1.00
2023-02-19T19:56:59.797Z,1.00
2023-02-19T19:59:42.060Z,1.00
2023-02-19T20:02:24.918Z,1.00
2023-02-19T20:05:08.046Z,1.00
2023-02-19T20:07:51.043Z,1.00
2023-02-19T20:10:33.819Z,1.00
2023-02-19T20:13:24.360Z,1.00
2023-02-19T20:16:11.102Z,1.00
2023-02-19T20:18:54.167Z,1.00
2023-02-19T20:21:37.204Z,1.00
2023-02-19T20:24:26.154Z,1.00
2023-02-19T20:27:08.542Z,1.00
2023-02-19T20:29:51.416Z,1.00
2023-02-19T20:32:34.395Z,1.00
2023-02-19T20:35:18.109Z,1.00
2023-02-19T20:38:00.725Z,1.00
2023-02-19T20:40:43.325Z,1.00
2023-02-19T20:43:27.288Z,1.00
2023-02-19T20:46:11.804Z,1.00
2023-02-19T20:48:54.663Z,1.00
2023-02-19T20:51:54.896Z,1.00
2023-02-19T20:54:38.401Z,1.00
2023-02-19T20:57:21.704Z,1.00
2023-02-19T21:00:05.818Z,1.00
2023-02-19T21:02:49.002Z,1.00
2023-02-19T21:05:31.765Z,1.00
2023-02-19T21:08:17.233Z,1.00
2023-02-19T21:11:00.235Z,1.00
2023-02-19T21:13:43.585Z,1.00
2023-02-19T21:16:27.512Z,1.00
2023-02-19T21:19:10.293Z,1.00
2023-02-19T21:21:52.682Z,1.00
2023-02-19T21:24:35.680Z,1.00
2023-02-19T21:27:19.248Z,1.00
2023-02-19T21:30:02.366Z,1.00
2023-02-19T21:32:44.904Z,1.00
2023-02-19T21:35:29.229Z,1.00
2023-02-19T21:38:11.771Z,1.00
2023-02-19T21:40:55.239Z,1.00
2023-02-19T21:43:37.809Z,1.00
2023-02-19T21:46:21.551Z,1.00
2023-02-19T21:49:04.613Z,1.00
2023-02-19T21:51:48.699Z,1.00
2023-02-19T21:54:31.271Z,1.00
2023-02-19T21:57:13.928Z,1.00
2023-02-19T21:59:56.436Z,1.00
2023-02-19T22:02:39.060Z,1.00
2023-02-19T22:05:21.371Z,1.00
2023-02-19T22:08:04.095Z,1.00
2023-02-19T22:10:46.974Z,1.00
2023-02-19T22:13:29.768Z,1.00
2023-02-19T22:16:12.376Z,1.00
2023-02-19T22:18:57.347Z,1.00
2023-02-19T22:21:43.572Z,1.00
2023-02-19T22:24:25.963Z,1.00
2023-02-19T22:27:08.836Z,1.00
2023-02-19T22:29:51.317Z,1.00
2023-02-19T22:32:33.677Z,1.00
2023-02-19T22:35:16.346Z,1.00
2023-02-19T22:37:58.541Z,1.00
2023-02-19T22:40:40.960Z,1.00
2023-02-19T22:43:23.223Z,1.00
2023-02-19T22:46:13.687Z,1.00
2023-02-19T22:48:56.864Z,1.00
2023-02-19T22:51:39.411Z,1.00
2023-02-19T22:54:27.072Z,1.00
2023-02-19T22:57:09.676Z,1.00
2023-02-19T22:59:52.305Z,1.00
2023-02-19T23:02:34.796Z,1.00
2023-02-19T23:05:17.859Z,1.00
2023-02-19T23:08:00.405Z,1.00
2023-02-19T23:10:42.632Z,1.00
2023-02-19T23:13:25.379Z,1.00
2023-02-19T23:16:07.765Z,1.00
2023-02-19T23:18:50.316Z,1.00
2023-02-19T23:21:33.247Z,1.00
2023-02-19T23:24:16.551Z,1.00
2023-02-19T23:27:00.658Z,1.00
2023-02-19T23:29:43.148Z,1.00
2023-02-19T23:32:25.355Z,1.00
2023-02-19T23:35:07.946Z,1.00
2023-02-19T23:37:50.341Z,1.00
2023-02-19T23:40:32.958Z,1.00
2023-02-19T23:43:15.162Z,1.00
2023-02-19T23:45:57.660Z,1.00
2023-02-19T23:48:39.848Z,1.00
2023-02-19T23:51:22.282Z,1.00
2023-02-19T23:54:04.965Z,1.00
2023-02-19T23:56:47.534Z,1.00
2023-02-19T23:59:29.731Z,1.00
